sensor_id;sensor_type;location;lat;lon;timestamp;P1;durP1;ratioP1;P2;durP2;ratioP2
12519;SDS011;6325;49.540;8.364;2023-02-28T00:00:29;1.23;;;1.20;;
12519;SDS011;6325;49.540;8.364;2023-02-28T00:02:56;1.00;;;1.00;;
12519;SDS011;6325;49.540;8.364;2023-02-28T00:05:24;1.33;;;1.10;;
12519;SDS011;6325;49.540;8.364;2023-02-28T00:07:52;1.33;;;1.23;;
12519;SDS011;6325;49.540;8.364;2023-02-28T00:10:20;1.30;;;1.20;;
12519;SDS011;6325;49.540;8.364;2023-02-28T00:12:49;1.38;;;1.27;;
12519;SDS011;6325;49.540;8.364;2023-02-28T00:15:19;1.30;;;1.20;;
12519;SDS011;6325;49.540;8.364;2023-02-28T00:17:46;1.00;;;1.00;;
12519;SDS011;6325;49.540;8.364;2023-02-28T00:20:13;1.30;;;1.20;;
12519;SDS011;6325;49.540;8.364;2023-02-28T00:22:41;1.20;;;1.20;;
12519;SDS011;6325;49.540;8.364;2023-02-28T00:25:10;1.40;;;1.30;;
12519;SDS011;6325;49.540;8.364;2023-02-28T00:27:38;1.40;;;1.40;;
12519;SDS011;6325;49.540;8.364;2023-02-28T00:30:08;1.27;;;1.27;;
12519;SDS011;6325;49.540;8.364;2023-02-28T00:32:38;1.30;;;1.20;;
12519;SDS011;6325;49.540;8.364;2023-02-28T00:35:05;1.20;;;1.20;;
12519;SDS011;6325;49.540;8.364;2023-02-28T00:37:34;1.20;;;1.20;;
12519;SDS011;6325;49.540;8.364;2023-02-28T00:40:01;1.50;;;1.40;;
12519;SDS011;6325;49.540;8.364;2023-02-28T00:42:29;1.40;;;1.30;;
12519;SDS011;6325;49.540;8.364;2023-02-28T00:44:56;1.35;;;1.35;;
12519;SDS011;6325;49.540;8.364;2023-02-28T00:47:23;1.30;;;1.20;;
12519;SDS011;6325;49.540;8.364;2023-02-28T00:49:51;1.50;;;1.40;;
12519;SDS011;6325;49.540;8.364;2023-02-28T00:52:18;1.20;;;1.20;;
12519;SDS011;6325;49.540;8.364;2023-02-28T00:54:45;1.33;;;1.33;;
12519;SDS011;6325;49.540;8.364;2023-02-28T00:57:12;1.60;;;1.50;;
12519;SDS011;6325;49.540;8.364;2023-02-28T00:59:39;1.50;;;1.40;;
12519;SDS011;6325;49.540;8.364;2023-02-28T01:02:06;1.60;;;1.50;;
12519;SDS011;6325;49.540;8.364;2023-02-28T01:04:33;1.48;;;1.38;;
12519;SDS011;6325;49.540;8.364;2023-02-28T01:07:02;1.60;;;1.50;;
12519;SDS011;6325;49.540;8.364;2023-02-28T01:09:29;1.35;;;1.35;;
12519;SDS011;6325;49.540;8.364;2023-02-28T01:11:56;1.52;;;1.42;;
12519;SDS011;6325;49.540;8.364;2023-02-28T01:14:23;1.40;;;1.40;;
12519;SDS011;6325;49.540;8.364;2023-02-28T01:16:50;1.50;;;1.50;;
12519;SDS011;6325;49.540;8.364;2023-02-28T01:19:17;1.50;;;1.40;;
12519;SDS011;6325;49.540;8.364;2023-02-28T01:21:44;1.50;;;1.40;;
12519;SDS011;6325;49.540;8.364;2023-02-28T01:24:12;1.50;;;1.40;;
12519;SDS011;6325;49.540;8.364;2023-02-28T01:26:39;1.63;;;1.52;;
12519;SDS011;6325;49.540;8.364;2023-02-28T01:29:06;1.88;;;1.50;;
12519;SDS011;6325;49.540;8.364;2023-02-28T01:31:34;1.67;;;1.58;;
12519;SDS011;6325;49.540;8.364;2023-02-28T01:34:01;1.50;;;1.40;;
12519;SDS011;6325;49.540;8.364;2023-02-28T01:36:28;1.58;;;1.48;;
12519;SDS011;6325;49.540;8.364;2023-02-28T01:38:55;1.70;;;1.60;;
12519;SDS011;6325;49.540;8.364;2023-02-28T01:41:25;1.75;;;1.65;;
12519;SDS011;6325;49.540;8.364;2023-02-28T01:43:59;1.73;;;1.60;;
12519;SDS011;6325;49.540;8.364;2023-02-28T01:46:31;1.70;;;1.60;;
12519;SDS011;6325;49.540;8.364;2023-02-28T01:49:00;1.70;;;1.50;;
12519;SDS011;6325;49.540;8.364;2023-02-28T01:51:33;1.90;;;1.80;;
12519;SDS011;6325;49.540;8.364;2023-02-28T01:54:05;1.98;;;1.80;;
12519;SDS011;6325;49.540;8.364;2023-02-28T01:56:40;1.70;;;1.60;;
12519;SDS011;6325;49.540;8.364;2023-02-28T01:59:12;1.80;;;1.70;;
12519;SDS011;6325;49.540;8.364;2023-02-28T02:01:42;1.83;;;1.73;;
12519;SDS011;6325;49.540;8.364;2023-02-28T02:04:09;1.95;;;1.80;;
12519;SDS011;6325;49.540;8.364;2023-02-28T02:06:37;1.60;;;1.50;;
12519;SDS011;6325;49.540;8.364;2023-02-28T02:09:08;1.90;;;1.80;;
12519;SDS011;6325;49.540;8.364;2023-02-28T02:11:35;1.65;;;1.58;;
12519;SDS011;6325;49.540;8.364;2023-02-28T02:17:13;1.77;;;1.67;;
12519;SDS011;6325;49.540;8.364;2023-02-28T02:22:53;1.80;;;1.70;;
12519;SDS011;6325;49.540;8.364;2023-02-28T02:25:49;1.90;;;1.80;;
12519;SDS011;6325;49.540;8.364;2023-02-28T02:31:21;1.80;;;1.70;;
12519;SDS011;6325;49.540;8.364;2023-02-28T02:34:09;1.80;;;1.70;;
12519;SDS011;6325;49.540;8.364;2023-02-28T02:36:58;1.60;;;1.50;;
12519;SDS011;6325;49.540;8.364;2023-02-28T02:39:34;1.90;;;1.80;;
12519;SDS011;6325;49.540;8.364;2023-02-28T02:42:11;1.80;;;1.70;;
12519;SDS011;6325;49.540;8.364;2023-02-28T02:44:43;1.70;;;1.60;;
12519;SDS011;6325;49.540;8.364;2023-02-28T02:47:14;1.90;;;1.80;;
12519;SDS011;6325;49.540;8.364;2023-02-28T02:49:45;2.15;;;1.73;;
12519;SDS011;6325;49.540;8.364;2023-02-28T02:52:15;1.55;;;1.48;;
12519;SDS011;6325;49.540;8.364;2023-02-28T02:54:48;1.55;;;1.55;;
12519;SDS011;6325;49.540;8.364;2023-02-28T02:57:20;1.73;;;1.63;;
12519;SDS011;6325;49.540;8.364;2023-02-28T02:59:49;1.70;;;1.60;;
12519;SDS011;6325;49.540;8.364;2023-02-28T03:02:19;1.70;;;1.60;;
12519;SDS011;6325;49.540;8.364;2023-02-28T03:04:50;1.85;;;1.75;;
12519;SDS011;6325;49.540;8.364;2023-02-28T03:07:19;1.88;;;1.80;;
12519;SDS011;6325;49.540;8.364;2023-02-28T03:09:50;1.73;;;1.63;;
12519;SDS011;6325;49.540;8.364;2023-02-28T03:12:18;1.42;;;1.42;;
12519;SDS011;6325;49.540;8.364;2023-02-28T03:14:49;1.70;;;1.60;;
12519;SDS011;6325;49.540;8.364;2023-02-28T03:17:36;2.22;;;1.77;;
12519;SDS011;6325;49.540;8.364;2023-02-28T03:20:17;1.63;;;1.52;;
12519;SDS011;6325;49.540;8.364;2023-02-28T03:23:00;1.73;;;1.63;;
12519;SDS011;6325;49.540;8.364;2023-02-28T03:25:36;1.80;;;1.70;;
12519;SDS011;6325;49.540;8.364;2023-02-28T03:28:08;1.90;;;1.80;;
12519;SDS011;6325;49.540;8.364;2023-02-28T03:30:44;1.60;;;1.50;;
12519;SDS011;6325;49.540;8.364;2023-02-28T03:33:17;1.60;;;1.50;;
12519;SDS011;6325;49.540;8.364;2023-02-28T03:35:50;1.85;;;1.75;;
12519;SDS011;6325;49.540;8.364;2023-02-28T03:38:21;2.17;;;1.77;;
12519;SDS011;6325;49.540;8.364;2023-02-28T03:40:55;1.80;;;1.70;;
12519;SDS011;6325;49.540;8.364;2023-02-28T03:43:27;1.70;;;1.60;;
12519;SDS011;6325;49.540;8.364;2023-02-28T03:46:05;2.08;;;1.88;;
12519;SDS011;6325;49.540;8.364;2023-02-28T03:48:37;2.05;;;1.95;;
12519;SDS011;6325;49.540;8.364;2023-02-28T03:51:08;1.80;;;1.70;;
12519;SDS011;6325;49.540;8.364;2023-02-28T03:53:39;1.73;;;1.63;;
12519;SDS011;6325;49.540;8.364;2023-02-28T03:56:12;1.90;;;1.80;;
12519;SDS011;6325;49.540;8.364;2023-02-28T03:58:44;1.80;;;1.70;;
12519;SDS011;6325;49.540;8.364;2023-02-28T04:01:18;1.60;;;1.60;;
12519;SDS011;6325;49.540;8.364;2023-02-28T04:03:49;1.50;;;1.40;;
12519;SDS011;6325;49.540;8.364;2023-02-28T04:06:19;1.85;;;1.75;;
12519;SDS011;6325;49.540;8.364;2023-02-28T04:08:47;1.98;;;1.88;;
12519;SDS011;6325;49.540;8.364;2023-02-28T04:11:17;1.70;;;1.60;;
12519;SDS011;6325;49.540;8.364;2023-02-28T04:13:47;2.00;;;1.90;;
12519;SDS011;6325;49.540;8.364;2023-02-28T04:16:14;1.90;;;1.80;;
12519;SDS011;6325;49.540;8.364;2023-02-28T04:18:41;1.90;;;1.80;;
12519;SDS011;6325;49.540;8.364;2023-02-28T04:21:09;1.90;;;1.80;;
12519;SDS011;6325;49.540;8.364;2023-02-28T04:23:37;1.90;;;1.80;;
12519;SDS011;6325;49.540;8.364;2023-02-28T04:26:04;1.90;;;1.80;;
12519;SDS011;6325;49.540;8.364;2023-02-28T04:28:32;2.00;;;1.90;;
12519;SDS011;6325;49.540;8.364;2023-02-28T04:31:00;2.05;;;1.90;;
12519;SDS011;6325;49.540;8.364;2023-02-28T04:33:30;1.90;;;1.80;;
12519;SDS011;6325;49.540;8.364;2023-02-28T04:35:58;2.07;;;1.80;;
12519;SDS011;6325;49.540;8.364;2023-02-28T04:38:28;1.80;;;1.70;;
12519;SDS011;6325;49.540;8.364;2023-02-28T04:40:58;1.80;;;1.70;;
12519;SDS011;6325;49.540;8.364;2023-02-28T04:43:25;1.80;;;1.70;;
12519;SDS011;6325;49.540;8.364;2023-02-28T04:45:53;1.98;;;1.88;;
12519;SDS011;6325;49.540;8.364;2023-02-28T04:48:21;2.00;;;1.90;;
12519;SDS011;6325;49.540;8.364;2023-02-28T04:50:48;2.00;;;1.90;;
12519;SDS011;6325;49.540;8.364;2023-02-28T04:53:15;2.10;;;1.90;;
12519;SDS011;6325;49.540;8.364;2023-02-28T04:55:42;2.00;;;1.90;;
12519;SDS011;6325;49.540;8.364;2023-02-28T04:58:11;2.03;;;1.93;;
12519;SDS011;6325;49.540;8.364;2023-02-28T05:00:38;2.30;;;2.00;;
12519;SDS011;6325;49.540;8.364;2023-02-28T05:03:05;2.08;;;1.98;;
12519;SDS011;6325;49.540;8.364;2023-02-28T05:05:32;1.90;;;1.80;;
12519;SDS011;6325;49.540;8.364;2023-02-28T05:07:59;2.03;;;1.92;;
12519;SDS011;6325;49.540;8.364;2023-02-28T05:10:26;1.90;;;1.80;;
12519;SDS011;6325;49.540;8.364;2023-02-28T05:12:53;2.10;;;2.00;;
12519;SDS011;6325;49.540;8.364;2023-02-28T05:15:21;2.10;;;2.00;;
12519;SDS011;6325;49.540;8.364;2023-02-28T05:17:48;2.10;;;2.00;;
12519;SDS011;6325;49.540;8.364;2023-02-28T05:20:15;2.10;;;2.00;;
12519;SDS011;6325;49.540;8.364;2023-02-28T05:22:43;1.92;;;1.83;;
12519;SDS011;6325;49.540;8.364;2023-02-28T05:25:10;2.17;;;2.08;;
12519;SDS011;6325;49.540;8.364;2023-02-28T05:27:40;2.10;;;2.00;;
12519;SDS011;6325;49.540;8.364;2023-02-28T05:30:07;2.30;;;2.20;;
12519;SDS011;6325;49.540;8.364;2023-02-28T05:32:38;2.00;;;1.90;;
12519;SDS011;6325;49.540;8.364;2023-02-28T05:35:08;2.50;;;2.20;;
12519;SDS011;6325;49.540;8.364;2023-02-28T05:37:36;2.33;;;2.13;;
12519;SDS011;6325;49.540;8.364;2023-02-28T05:40:04;1.90;;;1.80;;
12519;SDS011;6325;49.540;8.364;2023-02-28T05:42:35;2.10;;;2.00;;
12519;SDS011;6325;49.540;8.364;2023-02-28T05:45:02;2.40;;;2.20;;
12519;SDS011;6325;49.540;8.364;2023-02-28T05:47:29;2.17;;;2.08;;
12519;SDS011;6325;49.540;8.364;2023-02-28T05:49:57;2.42;;;2.22;;
12519;SDS011;6325;49.540;8.364;2023-02-28T05:52:25;2.13;;;1.92;;
12519;SDS011;6325;49.540;8.364;2023-02-28T05:54:52;2.05;;;1.95;;
12519;SDS011;6325;49.540;8.364;2023-02-28T05:57:19;2.15;;;2.05;;
12519;SDS011;6325;49.540;8.364;2023-02-28T05:59:46;2.10;;;2.00;;
12519;SDS011;6325;49.540;8.364;2023-02-28T06:02:14;2.30;;;2.20;;
12519;SDS011;6325;49.540;8.364;2023-02-28T06:04:42;2.25;;;2.15;;
12519;SDS011;6325;49.540;8.364;2023-02-28T06:07:11;2.10;;;2.00;;
12519;SDS011;6325;49.540;8.364;2023-02-28T06:09:38;2.10;;;2.00;;
12519;SDS011;6325;49.540;8.364;2023-02-28T06:12:11;2.40;;;2.20;;
12519;SDS011;6325;49.540;8.364;2023-02-28T06:14:38;2.20;;;2.10;;
12519;SDS011;6325;49.540;8.364;2023-02-28T06:17:06;2.42;;;2.22;;
12519;SDS011;6325;49.540;8.364;2023-02-28T06:19:32;2.20;;;2.10;;
12519;SDS011;6325;49.540;8.364;2023-02-28T06:21:59;2.25;;;2.13;;
12519;SDS011;6325;49.540;8.364;2023-02-28T06:24:28;2.47;;;2.28;;
12519;SDS011;6325;49.540;8.364;2023-02-28T06:26:56;2.53;;;2.35;;
12519;SDS011;6325;49.540;8.364;2023-02-28T06:29:29;2.40;;;2.20;;
12519;SDS011;6325;49.540;8.364;2023-02-28T06:31:57;2.33;;;2.23;;
12519;SDS011;6325;49.540;8.364;2023-02-28T06:34:24;2.30;;;2.20;;
12519;SDS011;6325;49.540;8.364;2023-02-28T06:36:51;2.40;;;2.30;;
12519;SDS011;6325;49.540;8.364;2023-02-28T06:39:18;2.40;;;2.20;;
12519;SDS011;6325;49.540;8.364;2023-02-28T06:41:47;2.67;;;2.45;;
12519;SDS011;6325;49.540;8.364;2023-02-28T06:44:17;2.50;;;2.30;;
12519;SDS011;6325;49.540;8.364;2023-02-28T06:46:45;2.42;;;2.28;;
12519;SDS011;6325;49.540;8.364;2023-02-28T06:49:13;2.50;;;2.30;;
12519;SDS011;6325;49.540;8.364;2023-02-28T06:51:41;2.45;;;2.28;;
12519;SDS011;6325;49.540;8.364;2023-02-28T06:54:13;2.60;;;2.40;;
12519;SDS011;6325;49.540;8.364;2023-02-28T06:56:40;2.60;;;2.40;;
12519;SDS011;6325;49.540;8.364;2023-02-28T06:59:10;2.60;;;2.40;;
12519;SDS011;6325;49.540;8.364;2023-02-28T07:01:37;2.50;;;2.30;;
12519;SDS011;6325;49.540;8.364;2023-02-28T07:04:05;2.40;;;2.20;;
12519;SDS011;6325;49.540;8.364;2023-02-28T07:06:32;2.83;;;2.40;;
12519;SDS011;6325;49.540;8.364;2023-02-28T07:08:59;2.45;;;2.30;;
12519;SDS011;6325;49.540;8.364;2023-02-28T07:11:26;2.70;;;2.50;;
12519;SDS011;6325;49.540;8.364;2023-02-28T07:13:55;2.30;;;2.20;;
12519;SDS011;6325;49.540;8.364;2023-02-28T07:16:24;2.40;;;2.30;;
12519;SDS011;6325;49.540;8.364;2023-02-28T07:18:51;2.70;;;2.50;;
12519;SDS011;6325;49.540;8.364;2023-02-28T07:21:20;2.40;;;2.22;;
12519;SDS011;6325;49.540;8.364;2023-02-28T07:23:47;2.70;;;2.50;;
12519;SDS011;6325;49.540;8.364;2023-02-28T07:26:15;2.53;;;2.30;;
12519;SDS011;6325;49.540;8.364;2023-02-28T07:28:43;2.67;;;2.47;;
12519;SDS011;6325;49.540;8.364;2023-02-28T07:31:11;2.40;;;2.30;;
12519;SDS011;6325;49.540;8.364;2023-02-28T07:33:41;2.75;;;2.55;;
12519;SDS011;6325;49.540;8.364;2023-02-28T07:36:09;2.60;;;2.40;;
12519;SDS011;6325;49.540;8.364;2023-02-28T07:38:40;2.60;;;2.40;;
12519;SDS011;6325;49.540;8.364;2023-02-28T07:41:07;2.50;;;2.30;;
12519;SDS011;6325;49.540;8.364;2023-02-28T07:43:34;2.33;;;2.20;;
12519;SDS011;6325;49.540;8.364;2023-02-28T07:46:02;2.40;;;2.20;;
12519;SDS011;6325;49.540;8.364;2023-02-28T07:48:32;2.33;;;2.20;;
12519;SDS011;6325;49.540;8.364;2023-02-28T07:51:01;2.60;;;2.40;;
12519;SDS011;6325;49.540;8.364;2023-02-28T07:53:28;2.40;;;2.20;;
12519;SDS011;6325;49.540;8.364;2023-02-28T07:55:56;2.30;;;2.20;;
12519;SDS011;6325;49.540;8.364;2023-02-28T07:58:23;3.22;;;2.50;;
12519;SDS011;6325;49.540;8.364;2023-02-28T08:00:51;2.60;;;2.40;;
12519;SDS011;6325;49.540;8.364;2023-02-28T08:03:18;2.53;;;2.40;;
12519;SDS011;6325;49.540;8.364;2023-02-28T08:05:45;2.97;;;2.72;;
12519;SDS011;6325;49.540;8.364;2023-02-28T08:08:14;2.90;;;2.70;;
12519;SDS011;6325;49.540;8.364;2023-02-28T08:10:42;3.13;;;2.83;;
12519;SDS011;6325;49.540;8.364;2023-02-28T08:13:09;2.80;;;2.60;;
12519;SDS011;6325;49.540;8.364;2023-02-28T08:15:36;3.00;;;2.80;;
12519;SDS011;6325;49.540;8.364;2023-02-28T08:18:03;3.00;;;2.80;;
12519;SDS011;6325;49.540;8.364;2023-02-28T08:20:30;3.00;;;2.80;;
12519;SDS011;6325;49.540;8.364;2023-02-28T08:22:57;3.03;;;2.70;;
12519;SDS011;6325;49.540;8.364;2023-02-28T08:25:25;3.10;;;2.90;;
12519;SDS011;6325;49.540;8.364;2023-02-28T08:27:52;3.03;;;2.83;;
12519;SDS011;6325;49.540;8.364;2023-02-28T08:30:19;3.13;;;2.77;;
12519;SDS011;6325;49.540;8.364;2023-02-28T08:32:48;2.90;;;2.70;;
12519;SDS011;6325;49.540;8.364;2023-02-28T08:35:15;3.30;;;3.00;;
12519;SDS011;6325;49.540;8.364;2023-02-28T08:37:42;3.35;;;3.08;;
12519;SDS011;6325;49.540;8.364;2023-02-28T08:40:09;3.08;;;2.88;;
12519;SDS011;6325;49.540;8.364;2023-02-28T08:42:40;2.88;;;2.67;;
12519;SDS011;6325;49.540;8.364;2023-02-28T08:45:07;3.13;;;2.92;;
12519;SDS011;6325;49.540;8.364;2023-02-28T08:47:34;3.10;;;2.90;;
12519;SDS011;6325;49.540;8.364;2023-02-28T08:50:02;3.15;;;2.95;;
12519;SDS011;6325;49.540;8.364;2023-02-28T08:52:29;3.40;;;3.10;;
12519;SDS011;6325;49.540;8.364;2023-02-28T08:54:56;2.85;;;2.65;;
12519;SDS011;6325;49.540;8.364;2023-02-28T08:57:22;3.13;;;2.92;;
12519;SDS011;6325;49.540;8.364;2023-02-28T08:59:52;3.35;;;3.08;;
12519;SDS011;6325;49.540;8.364;2023-02-28T09:02:19;3.40;;;3.10;;
12519;SDS011;6325;49.540;8.364;2023-02-28T09:04:46;3.28;;;2.97;;
12519;SDS011;6325;49.540;8.364;2023-02-28T09:07:13;3.17;;;2.90;;
12519;SDS011;6325;49.540;8.364;2023-02-28T09:09:40;3.28;;;2.97;;
12519;SDS011;6325;49.540;8.364;2023-02-28T09:12:18;3.40;;;3.10;;
12519;SDS011;6325;49.540;8.364;2023-02-28T09:14:45;3.60;;;3.30;;
12519;SDS011;6325;49.540;8.364;2023-02-28T09:17:13;3.40;;;3.10;;
12519;SDS011;6325;49.540;8.364;2023-02-28T09:19:40;3.40;;;3.10;;
12519;SDS011;6325;49.540;8.364;2023-02-28T09:22:08;3.17;;;2.97;;
12519;SDS011;6325;49.540;8.364;2023-02-28T09:24:35;3.85;;;3.55;;
12519;SDS011;6325;49.540;8.364;2023-02-28T09:27:03;3.77;;;3.50;;
12519;SDS011;6325;49.540;8.364;2023-02-28T09:29:31;3.60;;;3.30;;
12519;SDS011;6325;49.540;8.364;2023-02-28T09:31:58;4.00;;;3.60;;
12519;SDS011;6325;49.540;8.364;2023-02-28T09:34:27;3.58;;;3.10;;
12519;SDS011;6325;49.540;8.364;2023-02-28T09:36:56;3.10;;;2.90;;
12519;SDS011;6325;49.540;8.364;2023-02-28T09:39:23;3.50;;;3.20;;
12519;SDS011;6325;49.540;8.364;2023-02-28T09:41:52;3.35;;;3.15;;
12519;SDS011;6325;49.540;8.364;2023-02-28T09:44:21;3.80;;;3.50;;
12519;SDS011;6325;49.540;8.364;2023-02-28T09:46:55;4.03;;;3.67;;
12519;SDS011;6325;49.540;8.364;2023-02-28T09:49:31;3.65;;;3.35;;
12519;SDS011;6325;49.540;8.364;2023-02-28T09:52:05;3.70;;;3.40;;
12519;SDS011;6325;49.540;8.364;2023-02-28T09:54:35;3.58;;;3.38;;
12519;SDS011;6325;49.540;8.364;2023-02-28T09:57:05;4.00;;;3.60;;
12519;SDS011;6325;49.540;8.364;2023-02-28T10:02:38;3.50;;;3.30;;
12519;SDS011;6325;49.540;8.364;2023-02-28T10:05:13;3.90;;;3.60;;
12519;SDS011;6325;49.540;8.364;2023-02-28T10:07:47;3.70;;;3.40;;
12519;SDS011;6325;49.540;8.364;2023-02-28T10:10:24;3.97;;;3.57;;
12519;SDS011;6325;49.540;8.364;2023-02-28T10:12:55;4.07;;;3.50;;
12519;SDS011;6325;49.540;8.364;2023-02-28T10:15:26;3.78;;;3.47;;
12519;SDS011;6325;49.540;8.364;2023-02-28T10:17:56;3.90;;;3.60;;
12519;SDS011;6325;49.540;8.364;2023-02-28T10:20:27;4.10;;;3.75;;
12519;SDS011;6325;49.540;8.364;2023-02-28T10:22:58;3.70;;;3.40;;
12519;SDS011;6325;49.540;8.364;2023-02-28T10:25:32;3.97;;;3.67;;
12519;SDS011;6325;49.540;8.364;2023-02-28T10:28:00;4.10;;;3.80;;
12519;SDS011;6325;49.540;8.364;2023-02-28T10:30:34;4.10;;;3.70;;
12519;SDS011;6325;49.540;8.364;2023-02-28T10:33:02;3.55;;;3.28;;
12519;SDS011;6325;49.540;8.364;2023-02-28T10:35:31;3.85;;;3.55;;
12519;SDS011;6325;49.540;8.364;2023-02-28T10:37:59;3.97;;;3.60;;
12519;SDS011;6325;49.540;8.364;2023-02-28T10:40:35;3.60;;;3.30;;
12519;SDS011;6325;49.540;8.364;2023-02-28T10:43:03;3.75;;;3.45;;
12519;SDS011;6325;49.540;8.364;2023-02-28T10:45:31;3.63;;;3.42;;
12519;SDS011;6325;49.540;8.364;2023-02-28T10:48:02;3.97;;;3.63;;
12519;SDS011;6325;49.540;8.364;2023-02-28T10:50:34;3.33;;;3.13;;
12519;SDS011;6325;49.540;8.364;2023-02-28T10:53:22;3.70;;;3.40;;
12519;SDS011;6325;49.540;8.364;2023-02-28T10:55:58;3.67;;;3.47;;
12519;SDS011;6325;49.540;8.364;2023-02-28T10:58:27;3.67;;;3.40;;
12519;SDS011;6325;49.540;8.364;2023-02-28T11:00:56;4.10;;;3.80;;
12519;SDS011;6325;49.540;8.364;2023-02-28T11:03:25;4.00;;;3.70;;
12519;SDS011;6325;49.540;8.364;2023-02-28T11:05:58;3.92;;;3.63;;
12519;SDS011;6325;49.540;8.364;2023-02-28T11:08:30;4.03;;;3.67;;
12519;SDS011;6325;49.540;8.364;2023-02-28T11:10:58;4.10;;;3.80;;
12519;SDS011;6325;49.540;8.364;2023-02-28T11:13:28;4.10;;;3.70;;
12519;SDS011;6325;49.540;8.364;2023-02-28T11:15:59;4.03;;;3.72;;
12519;SDS011;6325;49.540;8.364;2023-02-28T11:18:30;3.90;;;3.60;;
12519;SDS011;6325;49.540;8.364;2023-02-28T11:21:06;3.70;;;3.50;;
12519;SDS011;6325;49.540;8.364;2023-02-28T11:23:35;3.80;;;3.50;;
12519;SDS011;6325;49.540;8.364;2023-02-28T11:26:06;3.80;;;3.50;;
12519;SDS011;6325;49.540;8.364;2023-02-28T11:28:37;3.97;;;3.67;;
12519;SDS011;6325;49.540;8.364;2023-02-28T11:31:14;3.80;;;3.60;;
12519;SDS011;6325;49.540;8.364;2023-02-28T11:33:44;4.25;;;3.95;;
12519;SDS011;6325;49.540;8.364;2023-02-28T11:36:16;4.20;;;3.90;;
12519;SDS011;6325;49.540;8.364;2023-02-28T11:38:45;4.55;;;4.15;;
12519;SDS011;6325;49.540;8.364;2023-02-28T11:41:18;4.35;;;4.00;;
12519;SDS011;6325;49.540;8.364;2023-02-28T11:44:02;4.22;;;3.92;;
12519;SDS011;6325;49.540;8.364;2023-02-28T11:46:44;4.40;;;4.10;;
12519;SDS011;6325;49.540;8.364;2023-02-28T11:49:20;4.20;;;3.90;;
12519;SDS011;6325;49.540;8.364;2023-02-28T11:51:59;4.25;;;3.95;;
12519;SDS011;6325;49.540;8.364;2023-02-28T11:54:32;4.20;;;3.90;;
12519;SDS011;6325;49.540;8.364;2023-02-28T11:57:16;4.18;;;3.88;;
12519;SDS011;6325;49.540;8.364;2023-02-28T11:59:56;4.18;;;3.88;;
12519;SDS011;6325;49.540;8.364;2023-02-28T12:02:29;4.22;;;3.92;;
12519;SDS011;6325;49.540;8.364;2023-02-28T12:05:08;4.43;;;4.03;;
12519;SDS011;6325;49.540;8.364;2023-02-28T12:07:49;4.38;;;3.97;;
12519;SDS011;6325;49.540;8.364;2023-02-28T12:10:24;4.10;;;3.80;;
12519;SDS011;6325;49.540;8.364;2023-02-28T12:12:59;4.30;;;3.90;;
12519;SDS011;6325;49.540;8.364;2023-02-28T12:15:41;4.10;;;3.80;;
12519;SDS011;6325;49.540;8.364;2023-02-28T12:18:32;4.20;;;3.90;;
12519;SDS011;6325;49.540;8.364;2023-02-28T12:21:10;4.13;;;3.83;;
12519;SDS011;6325;49.540;8.364;2023-02-28T12:23:54;4.22;;;3.92;;
12519;SDS011;6325;49.540;8.364;2023-02-28T12:26:34;4.15;;;3.85;;
12519;SDS011;6325;49.540;8.364;2023-02-28T12:29:13;3.88;;;3.58;;
12519;SDS011;6325;49.540;8.364;2023-02-28T12:31:45;4.10;;;3.80;;
12519;SDS011;6325;49.540;8.364;2023-02-28T12:34:18;3.53;;;3.30;;
12519;SDS011;6325;49.540;8.364;2023-02-28T12:36:48;4.25;;;3.95;;
12519;SDS011;6325;49.540;8.364;2023-02-28T12:39:20;3.97;;;3.67;;
12519;SDS011;6325;49.540;8.364;2023-02-28T12:41:53;4.00;;;3.70;;
12519;SDS011;6325;49.540;8.364;2023-02-28T12:44:23;4.30;;;4.00;;
12519;SDS011;6325;49.540;8.364;2023-02-28T12:46:55;4.43;;;4.13;;
12519;SDS011;6325;49.540;8.364;2023-02-28T12:49:27;4.50;;;4.20;;
12519;SDS011;6325;49.540;8.364;2023-02-28T12:51:57;4.70;;;4.30;;
12519;SDS011;6325;49.540;8.364;2023-02-28T12:54:28;4.60;;;4.20;;
12519;SDS011;6325;49.540;8.364;2023-02-28T12:57:06;4.57;;;4.28;;
12519;SDS011;6325;49.540;8.364;2023-02-28T12:59:39;4.53;;;4.20;;
12519;SDS011;6325;49.540;8.364;2023-02-28T13:02:26;4.53;;;4.13;;
12519;SDS011;6325;49.540;8.364;2023-02-28T13:05:35;4.35;;;4.05;;
12519;SDS011;6325;49.540;8.364;2023-02-28T13:11:27;4.57;;;4.17;;
12519;SDS011;6325;49.540;8.364;2023-02-28T13:13:57;4.15;;;3.85;;
12519;SDS011;6325;49.540;8.364;2023-02-28T13:16:25;4.00;;;3.70;;
12519;SDS011;6325;49.540;8.364;2023-02-28T13:18:53;4.22;;;3.92;;
12519;SDS011;6325;49.540;8.364;2023-02-28T13:21:41;4.50;;;4.10;;
12519;SDS011;6325;49.540;8.364;2023-02-28T13:24:11;4.32;;;4.03;;
12519;SDS011;6325;49.540;8.364;2023-02-28T13:33:17;4.13;;;3.83;;
12519;SDS011;6325;49.540;8.364;2023-02-28T13:35:50;4.40;;;4.10;;
12519;SDS011;6325;49.540;8.364;2023-02-28T13:38:34;4.20;;;3.90;;
12519;SDS011;6325;49.540;8.364;2023-02-28T13:44:10;4.90;;;4.50;;
12519;SDS011;6325;49.540;8.364;2023-02-28T13:49:43;4.90;;;4.50;;
12519;SDS011;6325;49.540;8.364;2023-02-28T13:52:12;6.25;;;5.65;;
12519;SDS011;6325;49.540;8.364;2023-02-28T13:57:48;5.03;;;4.65;;
12519;SDS011;6325;49.540;8.364;2023-02-28T14:00:34;4.83;;;4.47;;
12519;SDS011;6325;49.540;8.364;2023-02-28T14:03:16;4.63;;;4.32;;
12519;SDS011;6325;49.540;8.364;2023-02-28T14:06:15;4.43;;;4.13;;
12519;SDS011;6325;49.540;8.364;2023-02-28T14:08:49;4.78;;;4.40;;
12519;SDS011;6325;49.540;8.364;2023-02-28T14:11:26;4.82;;;4.43;;
12519;SDS011;6325;49.540;8.364;2023-02-28T14:13:56;4.60;;;4.20;;
12519;SDS011;6325;49.540;8.364;2023-02-28T14:16:26;4.60;;;4.28;;
12519;SDS011;6325;49.540;8.364;2023-02-28T14:19:01;4.32;;;4.03;;
12519;SDS011;6325;49.540;8.364;2023-02-28T14:21:32;4.80;;;4.40;;
12519;SDS011;6325;49.540;8.364;2023-02-28T14:24:09;4.50;;;4.20;;
12519;SDS011;6325;49.540;8.364;2023-02-28T14:27:12;4.95;;;4.55;;
12519;SDS011;6325;49.540;8.364;2023-02-28T14:30:11;4.60;;;4.30;;
12519;SDS011;6325;49.540;8.364;2023-02-28T14:33:05;4.60;;;4.30;;
12519;SDS011;6325;49.540;8.364;2023-02-28T14:35:50;4.45;;;4.15;;
12519;SDS011;6325;49.540;8.364;2023-02-28T14:38:27;4.30;;;4.00;;
12519;SDS011;6325;49.540;8.364;2023-02-28T14:41:02;4.78;;;4.38;;
12519;SDS011;6325;49.540;8.364;2023-02-28T14:43:32;4.55;;;4.15;;
12519;SDS011;6325;49.540;8.364;2023-02-28T14:46:00;4.40;;;4.00;;
12519;SDS011;6325;49.540;8.364;2023-02-28T14:48:29;4.70;;;4.30;;
12519;SDS011;6325;49.540;8.364;2023-02-28T14:50:57;4.47;;;4.10;;
12519;SDS011;6325;49.540;8.364;2023-02-28T14:53:27;4.72;;;4.38;;
12519;SDS011;6325;49.540;8.364;2023-02-28T14:55:55;4.43;;;4.13;;
12519;SDS011;6325;49.540;8.364;2023-02-28T14:58:23;4.95;;;4.55;;
12519;SDS011;6325;49.540;8.364;2023-02-28T15:00:52;5.15;;;4.70;;
12519;SDS011;6325;49.540;8.364;2023-02-28T15:03:22;5.03;;;4.63;;
12519;SDS011;6325;49.540;8.364;2023-02-28T15:05:55;4.90;;;4.50;;
12519;SDS011;6325;49.540;8.364;2023-02-28T15:08:23;4.50;;;4.10;;
12519;SDS011;6325;49.540;8.364;2023-02-28T15:10:51;4.22;;;3.90;;
12519;SDS011;6325;49.540;8.364;2023-02-28T15:13:21;4.95;;;4.57;;
12519;SDS011;6325;49.540;8.364;2023-02-28T15:15:51;4.60;;;4.30;;
12519;SDS011;6325;49.540;8.364;2023-02-28T15:18:26;4.68;;;4.38;;
12519;SDS011;6325;49.540;8.364;2023-02-28T15:21:00;4.30;;;3.90;;
12519;SDS011;6325;49.540;8.364;2023-02-28T15:23:29;4.63;;;4.22;;
12519;SDS011;6325;49.540;8.364;2023-02-28T15:25:57;4.40;;;4.10;;
12519;SDS011;6325;49.540;8.364;2023-02-28T15:28:25;4.38;;;4.07;;
12519;SDS011;6325;49.540;8.364;2023-02-28T15:30:53;4.47;;;4.10;;
12519;SDS011;6325;49.540;8.364;2023-02-28T15:33:23;4.18;;;3.88;;
12519;SDS011;6325;49.540;8.364;2023-02-28T15:35:51;4.40;;;4.10;;
12519;SDS011;6325;49.540;8.364;2023-02-28T15:38:33;4.10;;;3.80;;
12519;SDS011;6325;49.540;8.364;2023-02-28T15:41:02;4.38;;;3.97;;
12519;SDS011;6325;49.540;8.364;2023-02-28T15:43:36;4.35;;;4.05;;
12519;SDS011;6325;49.540;8.364;2023-02-28T15:46:05;4.30;;;4.00;;
12519;SDS011;6325;49.540;8.364;2023-02-28T15:48:35;4.60;;;4.20;;
12519;SDS011;6325;49.540;8.364;2023-02-28T15:51:08;4.28;;;3.97;;
12519;SDS011;6325;49.540;8.364;2023-02-28T15:53:47;4.28;;;3.97;;